This is the latest recevied weather packets stored in our database for station/object KG5MMT-15. If no packets are shown the sender has not sent any weather packets the latest 10 day(s).
| Time | Temp. | Humidity | Pressure | Rain* | Wind** | Luminosity | Snow |
|---|---|---|---|---|---|---|---|
| 1788061976 | 19.44° C | 60% | 0 hPa | 0 mm | - | - | - |
| 1788061676 | 19.44° C | 60% | 0 hPa | 0 mm | - | - | - |
| 1788061376 | 20° C | 57% | 0 hPa | 0 mm | - | - | - |
| 1788061076 | 20° C | 58% | 0 hPa | 0 mm | - | - | - |
| 1788060776 | 20.56° C | 54% | 0 hPa | 0 mm | - | - | - |
| 1788060476 | 20.56° C | 54% | 0 hPa | 0 mm | - | - | - |
| 1788060176 | 21.11° C | 51% | 0 hPa | 0 mm | - | - | - |
| 1788059876 | 21.67° C | 50% | 0 hPa | 0 mm | - | - | - |
| 1788059576 | 22.22° C | 47% | 0 hPa | 0 mm | - | - | - |
| 1788059276 | 22.22° C | 46% | 0 hPa | 0 mm | - | - | - |
| 1788058976 | 22.22° C | 46% | 0 hPa | 0 mm | - | - | - |
| 1788058676 | 22.22° C | 47% | 0 hPa | 0 mm | - | - | - |
| 1788058376 | 22.22° C | 46% | 0 hPa | 0 mm | - | - | - |
| 1788058076 | 22.22° C | 45% | 0 hPa | 0 mm | - | - | - |
| 1788057776 | 22.78° C | 44% | 0 hPa | 0 mm | - | - | - |
| 1788057476 | 22.78° C | 44% | 0 hPa | 0 mm | - | - | - |
| 1788057176 | 22.78° C | 45% | 0 hPa | 0 mm | - | - | - |
| 1788056876 | 22.22° C | 45% | 0 hPa | 0 mm | - | - | - |
| 1788056576 | 22.22° C | 46% | 0 hPa | 0 mm | - | - | - |
| 1788056276 | 22.22° C | 46% | 0 hPa | 0 mm | - | - | - |
| 1788055976 | 22.22° C | 47% | 0 hPa | 0 mm | - | - | - |
| 1788055676 | 22.22° C | 46% | 0 hPa | 0 mm | - | - | - |
| 1788055376 | 22.22° C | 48% | 0 hPa | 0 mm | - | - | - |
| 1788055076 | 22.78° C | 44% | 0 hPa | 0 mm | - | - | - |
| 1788054776 | 22.78° C | 49% | 0 hPa | 0 mm | - | - | - |
* Rain latest hour (hover to see other rain measurements)
** Current wind speed in m/s (hover to see current wind gust speed)